This is the latest recevied weather packets stored in our database for station/object NO9B. If no packets are shown the sender has not sent any weather packets the latest 10 day(s).
| Time | Temp. | Humidity | Pressure | Rain* | Wind** | Luminosity | Snow |
|---|---|---|---|---|---|---|---|
| 1787765460 | 27.22° C | 63% | 1013 hPa | 0 mm | - | 426 W/m² | - |
| 1787765159 | 26.67° C | 65% | 1013.3 hPa | 0 mm | - | 618 W/m² | - |
| 1787764854 | 27.22° C | 62% | 1013.3 hPa | 0 mm | - | 69 W/m² | - |
| 1787764549 | 27.78° C | 62% | 1013.1 hPa | 0 mm | - | 142 W/m² | - |
| 1787764244 | 26.67° C | 68% | 1013.1 hPa | 0 mm | - | 600 W/m² | - |
| 1787763940 | 27.78° C | 64% | 1013 hPa | 0 mm | - | 70 W/m² | - |
| 1787763636 | 27.22° C | 64% | 1013.2 hPa | 0 mm | - | 594 W/m² | - |
| 1787763331 | 27.22° C | 63% | 1013.1 hPa | 0 mm | - | 563 W/m² | - |
| 1787763030 | 27.78° C | 64% | 1013 hPa | 0 mm | - | 559 W/m² | - |
| 1787762725 | 27.22° C | 65% | 1013.3 hPa | 0 mm | - | 570 W/m² | - |
| 1787762424 | 26.67° C | 68% | 1013.1 hPa | 0 mm | - | 540 W/m² | - |
| 1787762121 | 26.67° C | 69% | 1013 hPa | 0 mm | - | 558 W/m² | - |
| 1787761817 | 26.67° C | 65% | 1013.2 hPa | 0 mm | - | 249 W/m² | - |
| 1787761512 | 26.67° C | 68% | 1013 hPa | 0 mm | - | 73 W/m² | - |
| 1787761207 | 26.67° C | 68% | 1013.2 hPa | 0 mm | - | 90 W/m² | - |
| 1787760901 | 26.67° C | 69% | 1013.1 hPa | 0 mm | - | 67 W/m² | - |
| 1787760599 | 26.11° C | 70% | 1013 hPa | 0 mm | - | 56 W/m² | - |
| 1787760298 | 26.11° C | 70% | 1013 hPa | 0 mm | - | 77 W/m² | - |
| 1787759996 | 25.56° C | 70% | 1013.1 hPa | 0 mm | - | 61 W/m² | - |
| 1787759696 | 25.56° C | 71% | 1013 hPa | 0 mm | - | 52 W/m² | - |
| 1787759392 | 25.56° C | 72% | 1013 hPa | 0 mm | - | 55 W/m² | - |
| 1787759087 | 25.56° C | 71% | 1012.9 hPa | 0 mm | - | 57 W/m² | - |
| 1787758786 | 25° C | 75% | 1013 hPa | 0 mm | - | 59 W/m² | - |
| 1787758482 | 25.56° C | 73% | 1013.1 hPa | 0 mm | - | 58 W/m² | - |
| 1787758181 | 25° C | 76% | 1013 hPa | 0 mm | - | 57 W/m² | - |
* Rain latest hour (hover to see other rain measurements)
** Current wind speed in m/s (hover to see current wind gust speed)